Time;durP1;ratioP1;P1;durP2;ratioP2;P2;SDS_P1;SDS_P2;PMS_P1;PMS_P2;Temp;Humidity;BMP_temperature;BMP_pressure;BME280_temperature;BME280_humidity;BME280_pressure;Samples;Min_cycle;Max_cycle;Signal;HPM_P1;HPM_P2
2022/09/24 00:01:39;;;;;;;2.85;2.10;;;17.60;90.10;;;;;;5044783;28;20463;-72
2022/09/24 00:04:10;;;;;;;2.90;2.20;;;17.50;90.10;;;;;;5011722;28;20055;-72
2022/09/24 00:06:44;;;;;;;3.00;2.15;;;17.60;90.10;;;;;;5010292;28;20049;-73
2022/09/24 00:09:14;;;;;;;4.13;2.35;;;17.50;90.10;;;;;;5028313;28;20053;-73
2022/09/24 00:11:44;;;;;;;3.42;2.10;;;17.50;90.00;;;;;;5028631;28;20053;-72
2022/09/24 00:14:12;;;;;;;4.68;2.33;;;17.50;90.00;;;;;;5029908;28;20045;-72
2022/09/24 00:16:41;;;;;;;5.22;2.55;;;17.60;90.00;;;;;;5026703;28;20395;-73
2022/09/24 00:19:10;;;;;;;3.45;2.13;;;17.60;90.00;;;;;;5048993;28;20395;-73
2022/09/24 00:21:39;;;;;;;3.80;2.20;;;17.50;90.00;;;;;;5015644;28;20459;-73
2022/09/24 00:26:48;;;;;;;5.43;3.00;;;17.50;90.10;;;;;;5048236;28;20110;-73
2022/09/24 00:26:59;;;;;;;7.35;2.53;;;17.50;90.20;;;;;;5048546;28;20124;-73
2022/09/24 00:29:27;;;;;;;3.83;2.05;;;17.50;90.10;;;;;;5032494;28;20386;-73
2022/09/24 00:31:55;;;;;;;3.22;2.08;;;17.50;90.20;;;;;;5049893;28;20036;-73
2022/09/24 00:34:23;;;;;;;5.85;2.50;;;17.50;90.20;;;;;;5048530;28;20045;-73
2022/09/24 00:36:51;;;;;;;3.30;2.10;;;17.50;90.20;;;;;;5048258;28;20045;-74
2022/09/24 00:39:19;;;;;;;4.28;2.78;;;17.50;90.30;;;;;;5049831;28;20044;-73
2022/09/24 00:41:47;;;;;;;5.10;1.98;;;17.50;90.30;;;;;;5049040;28;20041;-72
2022/09/24 00:44:40;;;;;;;5.22;2.97;;;17.50;90.30;;;;;;5015466;28;20060;-73
2022/09/24 00:47:26;;;;;;;3.65;2.70;;;17.50;90.30;;;;;;5048648;28;20086;-73
2022/09/24 00:50:20;;;;;;;4.63;1.95;;;17.40;90.40;;;;;;5052254;28;20091;-72
2022/09/24 00:52:56;;;;;;;3.65;2.25;;;17.40;90.40;;;;;;5015635;28;20057;-73
2022/09/24 00:55:25;;;;;;;4.85;2.20;;;17.40;90.40;;;;;;5015552;28;20156;-72
2022/09/24 00:57:59;;;;;;;4.47;2.20;;;17.40;90.50;;;;;;5049074;28;20045;-73
2022/09/24 01:00:27;;;;;;;4.30;2.25;;;17.30;90.50;;;;;;5035731;28;20072;-73
2022/09/24 01:03:00;;;;;;;4.03;1.95;;;17.30;90.50;;;;;;5053037;28;20060;-72
2022/09/24 01:05:29;;;;;;;3.85;2.20;;;17.30;90.60;;;;;;5051875;28;20476;-73
2022/09/24 01:07:57;;;;;;;3.58;1.75;;;17.20;90.50;;;;;;5052384;28;20044;-73
2022/09/24 01:10:49;;;;;;;3.10;2.30;;;17.20;90.70;;;;;;5051737;28;20070;-75
2022/09/24 01:13:40;;;;;;;2.88;1.80;;;17.20;90.80;;;;;;5035281;28;20091;-73
2022/09/24 01:16:43;;;;;;;4.40;1.85;;;17.20;90.80;;;;;;5052410;28;20164;-73
2022/09/24 01:19:36;;;;;;;3.33;1.90;;;17.20;90.80;;;;;;5051663;28;20045;-74
2022/09/24 01:22:40;;;;;;;3.85;2.35;;;17.10;90.70;;;;;;5051689;28;20391;-72
2022/09/24 01:25:53;;;;;;;3.10;1.90;;;17.10;90.70;;;;;;5035346;28;20125;-73
2022/09/24 01:28:43;;;;;;;3.35;2.00;;;17.10;90.70;;;;;;5036520;28;20049;-72
2022/09/24 01:31:19;;;;;;;3.00;2.13;;;17.10;90.70;;;;;;5050627;28;20075;-72
2022/09/24 01:33:52;;;;;;;2.97;2.00;;;17.10;90.70;;;;;;5035313;28;20057;-72
2022/09/24 01:36:22;;;;;;;4.03;2.33;;;17.10;90.90;;;;;;5034480;28;20337;-73
2022/09/24 01:38:52;;;;;;;4.88;2.25;;;17.00;90.90;;;;;;5018640;28;20056;-73
2022/09/24 01:41:21;;;;;;;5.22;2.42;;;17.00;90.70;;;;;;5050964;28;20037;-73
2022/09/24 01:43:49;;;;;;;5.30;3.30;;;16.90;90.70;;;;;;5018996;28;20057;-74
2022/09/24 01:46:18;;;;;;;6.28;3.78;;;16.80;90.70;;;;;;5051117;28;20053;-73
2022/09/24 01:48:47;;;;;;;6.20;3.35;;;16.70;90.80;;;;;;5033593;28;20469;-73
2022/09/24 01:51:29;;;;;;;6.55;3.90;;;16.60;90.80;;;;;;5049720;28;20042;-73
2022/09/24 01:54:02;;;;;;;8.45;2.72;;;16.50;90.80;;;;;;5018067;28;20132;-74
2022/09/24 01:56:59;;;;;;;4.60;2.30;;;16.50;90.90;;;;;;5050472;28;20048;-74
2022/09/24 02:00:02;;;;;;;4.68;3.00;;;16.40;90.90;;;;;;5025765;28;20466;-73
2022/09/24 02:03:07;;;;;;;4.35;2.97;;;16.30;91.00;;;;;;5031126;28;20110;-73
2022/09/24 02:06:02;;;;;;;4.80;3.03;;;16.30;91.10;;;;;;5051763;28;20131;-74
2022/09/24 02:08:39;;;;;;;5.28;3.28;;;16.20;91.20;;;;;;5034122;28;20051;-72
2022/09/24 02:11:14;;;;;;;5.18;3.22;;;16.10;91.30;;;;;;5034701;28;20045;-72
2022/09/24 02:13:59;;;;;;;4.97;3.47;;;16.00;91.40;;;;;;5053700;28;20435;-72
2022/09/24 02:16:32;;;;;;;4.45;3.03;;;16.00;91.60;;;;;;5036291;28;20048;-72
2022/09/24 02:19:04;;;;;;;5.22;2.53;;;15.90;91.70;;;;;;5036687;28;20067;-73
2022/09/24 02:21:34;;;;;;;5.43;2.17;;;15.90;91.80;;;;;;5070651;28;20414;-72
2022/09/24 02:24:07;;;;;;;3.10;1.88;;;15.90;91.90;;;;;;5019833;28;20064;-73
2022/09/24 02:26:35;;;;;;;5.57;3.10;;;15.90;91.90;;;;;;5053510;28;20047;-73
2022/09/24 02:29:02;;;;;;;4.05;2.13;;;15.80;92.00;;;;;;5036684;28;20392;-73
2022/09/24 02:31:38;;;;;;;3.05;2.03;;;15.80;92.00;;;;;;5036477;28;20143;-73
2022/09/24 02:34:21;;;;;;;4.60;2.40;;;15.90;92.10;;;;;;5037049;28;20084;-72
2022/09/24 02:36:58;;;;;;;4.80;2.58;;;15.80;92.10;;;;;;5053429;28;20052;-73
2022/09/24 02:39:25;;;;;;;;;;;15.80;92.30;;;;;;5071704;28;20060;-73
2022/09/24 02:41:53;;;;;;;3.33;1.92;;;15.80;92.40;;;;;;5053214;28;19960;-73
2022/09/24 02:44:21;;;;;;;3.85;2.25;;;15.80;92.40;;;;;;5036105;28;20044;-73
2022/09/24 02:46:49;;;;;;;2.88;2.08;;;15.70;92.40;;;;;;5051826;28;20424;-72
2022/09/24 02:49:17;;;;;;;2.75;1.73;;;15.80;92.50;;;;;;5016888;28;20372;-73
2022/09/24 02:51:45;;;;;;;2.50;2.00;;;15.80;92.60;;;;;;5049983;28;20041;-72
2022/09/24 02:54:12;;;;;;;3.28;2.17;;;15.80;92.70;;;;;;5032708;28;20037;-74
2022/09/24 02:56:40;;;;;;;3.25;1.65;;;15.80;92.80;;;;;;5032160;28;20191;-73
2022/09/24 02:59:08;;;;;;;3.28;1.98;;;15.80;92.80;;;;;;5032131;28;20048;-73
2022/09/24 03:01:35;;;;;;;3.20;1.75;;;15.80;92.90;;;;;;5021790;28;20057;-72
2022/09/24 03:04:03;;;;;;;3.20;1.90;;;15.80;93.00;;;;;;5049050;28;20045;-75
2022/09/24 03:06:31;;;;;;;3.72;1.92;;;15.80;93.00;;;;;;5032748;28;20143;-73
2022/09/24 03:09:01;;;;;;;3.60;1.88;;;15.80;93.20;;;;;;5032324;28;20697;-73
2022/09/24 03:11:30;;;;;;;3.55;1.83;;;15.80;93.30;;;;;;5048237;28;20052;-73
2022/09/24 03:13:58;;;;;;;4.03;2.40;;;15.80;93.40;;;;;;4999744;28;20645;-74
2022/09/24 03:16:26;;;;;;;3.53;2.35;;;15.80;93.40;;;;;;5032158;28;20086;-73
2022/09/24 03:18:53;;;;;;;3.72;2.10;;;15.80;93.60;;;;;;5032318;28;20084;-73
2022/09/24 03:21:21;;;;;;;4.50;2.17;;;15.80;93.70;;;;;;5050014;28;20041;-72
2022/09/24 03:23:49;;;;;;;6.18;2.65;;;15.90;93.90;;;;;;5049330;28;20056;-72
2022/09/24 03:26:17;;;;;;;3.38;1.85;;;15.80;93.90;;;;;;5049837;28;20076;-73
2022/09/24 03:28:45;;;;;;;5.28;2.00;;;15.80;93.90;;;;;;5031026;28;20666;-72
2022/09/24 03:31:12;;;;;;;4.88;2.13;;;15.80;94.00;;;;;;5031782;28;20123;-73
2022/09/24 03:33:44;;;;;;;2.40;1.50;;;15.80;94.00;;;;;;5031949;28;20108;-73
2022/09/24 03:36:16;;;;;;;3.22;1.70;;;15.80;94.00;;;;;;5032073;28;20471;-74
2022/09/24 03:38:45;;;;;;;3.05;1.73;;;15.80;94.00;;;;;;5048458;28;20041;-73
2022/09/24 03:41:13;;;;;;;2.10;1.40;;;15.90;94.10;;;;;;5032465;28;20052;-72
2022/09/24 03:43:41;;;;;;;3.38;1.45;;;15.80;94.10;;;;;;5032477;28;20085;-73
2022/09/24 03:46:10;;;;;;;2.47;1.55;;;15.90;94.00;;;;;;5050876;28;20059;-73
2022/09/24 03:48:39;;;;;;;2.60;1.27;;;15.90;94.00;;;;;;5014786;28;20076;-73
2022/09/24 03:51:17;;;;;;;2.55;1.17;;;15.90;94.00;;;;;;5032168;28;20072;-72
2022/09/24 03:53:45;;;;;;;4.93;1.65;;;15.90;93.90;;;;;;5050600;28;20064;-72
2022/09/24 03:56:13;;;;;;;2.20;1.50;;;15.90;93.90;;;;;;5035003;28;20106;-74
2022/09/24 03:58:43;;;;;;;2.38;1.35;;;15.90;93.90;;;;;;5034833;28;20045;-73
2022/09/24 04:01:11;;;;;;;2.00;1.30;;;15.90;94.00;;;;;;5069335;28;20051;-73
2022/09/24 04:03:39;;;;;;;2.20;1.40;;;15.90;94.00;;;;;;5035198;28;20161;-73
2022/09/24 04:06:07;;;;;;;3.63;2.25;;;15.90;94.10;;;;;;5051763;28;20048;-73
2022/09/24 04:08:34;;;;;;;4.13;1.88;;;15.90;94.00;;;;;;5051386;28;20095;-73
2022/09/24 04:11:02;;;;;;;2.63;1.70;;;15.90;94.00;;;;;;5069243;28;20049;-73
2022/09/24 04:13:30;;;;;;;1.75;1.20;;;15.80;94.00;;;;;;5048760;28;20029;-73
2022/09/24 04:16:04;;;;;;;1.95;1.45;;;15.80;94.10;;;;;;5049439;28;20052;-73
2022/09/24 04:18:31;;;;;;;1.83;1.33;;;15.80;94.10;;;;;;5049223;28;20099;-72
2022/09/24 04:21:02;;;;;;;3.35;1.80;;;15.80;94.20;;;;;;5032024;28;20059;-73
2022/09/24 04:23:30;;;;;;;3.72;1.98;;;15.80;94.20;;;;;;5031543;28;20069;-73
2022/09/24 04:26:00;;;;;;;5.55;2.00;;;15.80;94.30;;;;;;5048416;28;20120;-72
2022/09/24 04:28:29;;;;;;;2.90;1.98;;;15.80;94.30;;;;;;5031676;28;20053;-73
2022/09/24 04:30:57;;;;;;;3.78;1.58;;;15.80;94.40;;;;;;5031306;28;20503;-72
2022/09/24 04:33:25;;;;;;;2.88;1.90;;;15.80;94.30;;;;;;5047995;28;20375;-73
2022/09/24 04:35:52;;;;;;;2.50;1.95;;;15.80;94.40;;;;;;5047439;28;20076;-73
2022/09/24 04:38:20;;;;;;;2.53;1.67;;;15.80;94.30;;;;;;5030666;28;20076;-74
2022/09/24 04:40:48;;;;;;;2.58;1.63;;;15.80;94.30;;;;;;5047060;28;20133;-72
2022/09/24 04:43:17;;;;;;;3.58;1.80;;;15.80;94.40;;;;;;5032849;28;20037;-73
2022/09/24 04:45:45;;;;;;;3.20;1.70;;;15.80;94.40;;;;;;5029106;28;20057;-73
2022/09/24 04:48:13;;;;;;;5.00;1.77;;;15.80;94.40;;;;;;5027968;28;20132;-73
2022/09/24 04:50:41;;;;;;;4.97;1.75;;;15.90;94.30;;;;;;5028535;28;20128;-73
2022/09/24 04:53:13;;;;;;;4.30;1.73;;;15.90;94.30;;;;;;5011133;28;20103;-73
2022/09/24 04:55:40;;;;;;;3.60;1.90;;;16.10;94.30;;;;;;5027354;28;20053;-72
2022/09/24 04:58:09;;;;;;;3.30;1.35;;;16.20;94.10;;;;;;5026503;28;20054;-72
2022/09/24 05:00:37;;;;;;;2.78;1.58;;;16.30;93.90;;;;;;5027265;28;20042;-74
2022/09/24 05:03:05;;;;;;;2.97;1.85;;;16.40;93.80;;;;;;5026783;28;20425;-73
2022/09/24 05:05:33;;;;;;;4.25;1.50;;;16.60;93.70;;;;;;5028390;28;20108;-73
2022/09/24 05:08:02;;;;;;;2.42;1.70;;;16.70;93.50;;;;;;5010821;28;20099;-73
2022/09/24 05:10:31;;;;;;;3.35;1.40;;;16.90;93.40;;;;;;5027033;28;20104;-72
2022/09/24 05:13:01;;;;;;;3.13;1.67;;;17.10;93.20;;;;;;5020646;28;20072;-73
2022/09/24 05:15:28;;;;;;;2.72;1.48;;;17.30;93.00;;;;;;5037218;28;20074;-74
2022/09/24 05:17:56;;;;;;;2.13;1.30;;;17.40;92.90;;;;;;5033898;28;20037;-73
2022/09/24 05:20:24;;;;;;;2.38;1.73;;;17.60;92.70;;;;;;5040473;28;20069;-73
2022/09/24 05:22:52;;;;;;;4.82;1.90;;;17.80;92.50;;;;;;5035643;28;20045;-73
2022/09/24 05:25:22;;;;;;;2.10;1.23;;;18.00;92.30;;;;;;5037111;28;20076;-75
2022/09/24 05:27:51;;;;;;;2.03;1.20;;;18.20;92.20;;;;;;5024598;28;20041;-73
2022/09/24 05:30:21;;;;;;;2.70;1.25;;;18.30;92.00;;;;;;5024943;28;20499;-74
2022/09/24 05:32:51;;;;;;;2.28;1.30;;;18.50;91.80;;;;;;5044515;28;20044;-73
2022/09/24 05:35:19;;;;;;;2.78;1.48;;;18.70;91.70;;;;;;5033699;28;20053;-72
2022/09/24 05:37:48;;;;;;;14.75;2.25;;;18.80;91.50;;;;;;5050404;28;20083;-72
2022/09/24 05:43:03;;;;;;;3.13;1.58;;;19.20;91.30;;;;;;5051129;28;20049;-74
2022/09/24 05:45:31;;;;;;;2.83;1.80;;;19.40;91.10;;;;;;5033478;28;20146;-72
2022/09/24 05:47:59;;;;;;;1.55;1.40;;;19.60;91.00;;;;;;5050155;28;20156;-73
2022/09/24 05:50:27;;;;;;;3.25;1.35;;;19.70;90.80;;;;;;5052235;28;20036;-74
2022/09/24 05:52:55;;;;;;;2.20;1.30;;;19.90;90.70;;;;;;5051299;28;20052;-73
2022/09/24 05:55:22;;;;;;;3.08;1.48;;;20.10;90.50;;;;;;5049900;28;20056;-73
2022/09/24 05:57:51;;;;;;;5.10;2.22;;;20.20;90.40;;;;;;5033128;28;20045;-72
2022/09/24 06:00:19;;;;;;;2.85;1.50;;;20.40;90.30;;;;;;5016971;28;20151;-73
2022/09/24 06:02:46;;;;;;;4.00;1.60;;;20.50;90.20;;;;;;5033237;28;20067;-73
2022/09/24 06:05:14;;;;;;;2.83;1.50;;;20.70;90.10;;;;;;5033318;28;20056;-75
2022/09/24 06:07:41;;;;;;;2.15;1.40;;;20.90;89.70;;;;;;5049920;28;20041;-73
2022/09/24 06:10:09;;;;;;;2.88;1.85;;;21.00;88.90;;;;;;5033551;28;20341;-73
2022/09/24 06:12:37;;;;;;;2.10;1.30;;;21.20;88.60;;;;;;5063717;28;20059;-76
2022/09/24 06:15:05;;;;;;;3.30;1.90;;;21.40;88.10;;;;;;5071154;28;20072;-72
2022/09/24 06:17:33;;;;;;;1.60;1.50;;;21.50;87.60;;;;;;5053147;28;20037;-74
2022/09/24 06:20:00;;;;;;;1.85;1.20;;;21.70;87.30;;;;;;5069601;28;20079;-73
2022/09/24 06:22:28;;;;;;;1.50;1.30;;;21.90;87.00;;;;;;5052490;28;20174;-72
2022/09/24 06:24:56;;;;;;;3.90;1.40;;;22.00;86.70;;;;;;5035938;28;20040;-73
2022/09/24 06:27:24;;;;;;;3.38;1.38;;;22.10;86.20;;;;;;5052905;28;20048;-74
2022/09/24 06:29:51;;;;;;;3.20;1.27;;;22.30;85.80;;;;;;5070454;28;20135;-75
2022/09/24 06:32:19;;;;;;;2.00;1.10;;;22.40;86.00;;;;;;5035547;28;20048;-74
2022/09/24 06:34:46;;;;;;;3.92;1.10;;;22.50;85.00;;;;;;5052130;28;20095;-72
2022/09/24 06:37:14;;;;;;;1.55;1.23;;;22.60;84.70;;;;;;5036679;28;20110;-73
2022/09/24 06:39:41;;;;;;;3.13;1.20;;;22.80;84.40;;;;;;5019892;28;20157;-75
2022/09/24 06:42:10;;;;;;;2.20;1.42;;;22.90;84.10;;;;;;5052678;28;20119;-73
2022/09/24 06:44:38;;;;;;;2.33;1.30;;;23.00;83.50;;;;;;5034812;28;20068;-73
2022/09/24 06:47:06;;;;;;;2.78;1.08;;;23.10;83.10;;;;;;5051798;28;20048;-74
2022/09/24 06:49:33;;;;;;;2.20;1.55;;;23.30;82.70;;;;;;5052767;28;20568;-73
2022/09/24 06:52:01;;;;;;;2.92;1.20;;;23.50;82.40;;;;;;5036215;28;20075;-74
2022/09/24 06:54:29;;;;;;;4.40;1.40;;;23.60;81.60;;;;;;5036109;28;20040;-72
2022/09/24 06:56:56;;;;;;;2.88;1.67;;;23.70;81.40;;;;;;5070409;28;20498;-73
2022/09/24 06:59:24;;;;;;;2.92;1.55;;;23.90;81.60;;;;;;5070378;28;20064;-81
2022/09/24 07:01:52;;;;;;;1.73;1.15;;;24.00;81.40;;;;;;5036434;28;20123;-73
2022/09/24 07:04:20;;;;;;;3.58;1.50;;;24.10;80.70;;;;;;5052874;28;20143;-73
2022/09/24 07:09:35;;;;;;;3.13;1.20;;;24.30;79.60;;;;;;5070795;28;20044;-73
2022/09/24 07:12:04;;;;;;;4.13;1.65;;;24.30;79.20;;;;;;5037340;28;20450;-72
2022/09/24 07:14:32;;;;;;;1.85;1.27;;;24.30;78.70;;;;;;5022978;28;20060;-73
2022/09/24 07:16:59;;;;;;;1.77;1.20;;;24.30;78.50;;;;;;5032327;28;20060;-73
2022/09/24 07:19:27;;;;;;;4.65;1.30;;;24.40;78.50;;;;;;5032453;28;20064;-72
2022/09/24 07:21:56;;;;;;;2.30;1.55;;;24.40;78.40;;;;;;5032402;28;20057;-73
2022/09/24 07:24:24;;;;;;;2.03;1.23;;;24.40;78.10;;;;;;5048902;28;20152;-73
2022/09/24 07:26:51;;;;;;;6.80;1.30;;;24.50;78.20;;;;;;5015548;28;20091;-72
2022/09/24 07:29:19;;;;;;;3.50;1.48;;;24.50;78.00;;;;;;5048169;28;20044;-73
2022/09/24 07:31:46;;;;;;;2.15;1.40;;;24.60;77.90;;;;;;5032108;28;20052;-74
2022/09/24 07:34:14;;;;;;;4.97;1.55;;;24.70;77.90;;;;;;5032889;28;20050;-72
2022/09/24 07:36:42;;;;;;;3.45;1.40;;;24.70;77.60;;;;;;5049879;28;20049;-73
2022/09/24 07:39:09;;;;;;;2.10;1.17;;;24.80;77.20;;;;;;5014970;28;20479;-72
2022/09/24 07:41:39;;;;;;;2.50;1.33;;;24.80;77.60;;;;;;5031051;28;20142;-72
2022/09/24 07:44:08;;;;;;;2.75;1.50;;;24.80;77.20;;;;;;5047006;28;20084;-72
2022/09/24 07:46:36;;;;;;;2.17;1.42;;;24.60;76.90;;;;;;5046937;28;20524;-74
2022/09/24 07:49:03;;;;;;;2.15;1.30;;;24.60;77.10;;;;;;5014727;28;20322;-73
2022/09/24 07:51:31;;;;;;;2.85;1.10;;;24.60;77.50;;;;;;5048459;28;20051;-73
2022/09/24 07:53:58;;;;;;;5.13;2.00;;;24.60;77.70;;;;;;5014966;28;20043;-72
2022/09/24 07:56:26;;;;;;;5.72;1.63;;;24.60;77.40;;;;;;5030743;28;20059;-73
2022/09/24 07:58:54;;;;;;;3.45;1.60;;;24.60;77.10;;;;;;5030273;28;20049;-73
2022/09/24 08:01:21;;;;;;;1.90;1.27;;;24.50;77.00;;;;;;5014437;28;20053;-73
2022/09/24 08:03:51;;;;;;;3.00;1.48;;;24.30;76.60;;;;;;5030736;28;20057;-73
2022/09/24 08:06:22;;;;;;;4.10;1.63;;;24.30;77.10;;;;;;5030914;28;20064;-72
2022/09/24 08:08:51;;;;;;;4.28;1.20;;;24.40;77.20;;;;;;5028985;28;20037;-72
2022/09/24 08:11:20;;;;;;;2.30;1.52;;;24.30;76.10;;;;;;5047596;28;20477;-73
2022/09/24 08:13:47;;;;;;;2.53;1.20;;;24.30;76.60;;;;;;5030805;28;20148;-75
2022/09/24 08:16:15;;;;;;;1.77;1.00;;;24.10;75.60;;;;;;5048907;28;20090;-73
2022/09/24 08:18:43;;;;;;;4.03;1.45;;;24.20;76.30;;;;;;5030782;28;20049;-72
2022/09/24 08:21:14;;;;;;;1.65;1.27;;;24.20;76.00;;;;;;5031224;28;20033;-73
2022/09/24 08:23:42;;;;;;;1.48;1.00;;;23.60;74.10;;;;;;5031830;28;20478;-72
2022/09/24 08:26:11;;;;;;;3.47;1.42;;;23.80;75.30;;;;;;5049383;28;20159;-73
2022/09/24 08:28:40;;;;;;;1.98;1.40;;;23.90;75.00;;;;;;5048138;28;20361;-72
2022/09/24 08:31:11;;;;;;;2.53;1.20;;;24.20;75.50;;;;;;5048091;28;20044;-75
2022/09/24 08:33:39;;;;;;;4.07;1.80;;;24.30;74.40;;;;;;5013992;28;20051;-74
2022/09/24 08:36:08;;;;;;;8.68;3.05;;;24.50;74.40;;;;;;5048172;28;20368;-72
2022/09/24 08:38:36;;;;;;;3.95;1.33;;;24.60;74.70;;;;;;4999214;28;20053;-72
2022/09/24 08:41:32;;;;;;;3.00;1.60;;;24.80;74.60;;;;;;5016479;28;20045;-71
2022/09/24 08:47:36;;;;;;;2.55;1.30;;;25.10;74.20;;;;;;5048058;28;20048;-75
2022/09/24 08:50:08;;;;;;;4.43;1.30;;;25.30;74.20;;;;;;5026960;28;20064;-75
2022/09/24 08:52:41;;;;;;;2.47;1.60;;;25.40;73.20;;;;;;5032033;28;20045;-71
2022/09/24 08:55:32;;;;;;;1.67;1.20;;;25.40;72.70;;;;;;5016156;28;20041;-72
2022/09/24 08:58:16;;;;;;;3.03;1.25;;;25.50;72.00;;;;;;5039031;28;20033;-72
2022/09/24 09:01:08;;;;;;;6.13;1.80;;;25.60;71.40;;;;;;5039281;28;20051;-72
2022/09/24 09:03:52;;;;;;;2.97;1.10;;;25.60;71.20;;;;;;5049677;28;20123;-72
2022/09/24 09:06:39;;;;;;;3.67;1.10;;;25.60;70.70;;;;;;5046403;28;20041;-74
2022/09/24 09:09:31;;;;;;;1.92;1.00;;;25.10;71.00;;;;;;5063441;28;20108;-73
2022/09/24 09:12:02;;;;;;;3.45;1.15;;;25.10;70.30;;;;;;5048304;28;20052;-72
2022/09/24 09:15:04;;;;;;;2.03;1.00;;;24.80;70.10;;;;;;5055535;28;20043;-72
2022/09/24 09:18:07;;;;;;;1.63;1.00;;;24.90;70.20;;;;;;5048976;28;20099;-72
2022/09/24 09:20:45;;;;;;;5.72;1.58;;;24.80;68.90;;;;;;4974454;28;20128;-73
2022/09/24 09:23:17;;;;;;;1.13;0.90;;;24.30;70.30;;;;;;5046722;28;20470;-72
2022/09/24 09:25:53;;;;;;;1.85;1.40;;;24.10;70.90;;;;;;5039422;28;20059;-72
2022/09/24 09:28:21;;;;;;;2.00;1.38;;;23.90;71.40;;;;;;5040207;28;20052;-72
2022/09/24 09:31:17;;;;;;;2.45;1.27;;;23.90;71.60;;;;;;5074121;28;20073;-72
2022/09/24 09:33:59;;;;;;;6.15;3.35;;;24.10;72.00;;;;;;5038837;28;20051;-75
2022/09/24 09:36:42;;;;;;;1.90;1.27;;;24.20;71.70;;;;;;5039090;28;20135;-76
2022/09/24 09:39:30;;;;;;;2.65;0.93;;;23.80;70.90;;;;;;5054391;28;20088;-72
2022/09/24 09:42:20;;;;;;;2.08;1.13;;;24.00;72.30;;;;;;5037645;28;20127;-72
2022/09/24 09:44:48;;;;;;;1.80;1.10;;;24.30;71.10;;;;;;5021782;28;20053;-71
2022/09/24 09:47:34;;;;;;;3.13;1.77;;;24.60;68.70;;;;;;5072674;28;20136;-72
2022/09/24 09:50:13;;;;;;;3.38;1.50;;;24.90;68.00;;;;;;5053696;28;20495;-72
2022/09/24 09:52:41;;;;;;;3.17;1.00;;;25.10;67.60;;;;;;5036767;28;20041;-72
2022/09/24 09:55:23;;;;;;;1.50;1.00;;;25.20;66.50;;;;;;5071097;28;20051;-72
2022/09/24 09:57:52;;;;;;;1.52;0.93;;;25.10;63.50;;;;;;5054997;28;20154;-73
2022/09/24 10:00:33;;;;;;;3.90;2.20;;;25.30;62.70;;;;;;5041176;28;20060;-73
2022/09/24 10:03:02;;;;;;;4.88;1.20;;;25.40;63.00;;;;;;5017957;28;20048;-71
2022/09/24 10:05:30;;;;;;;2.33;1.13;;;25.20;65.00;;;;;;5017838;28;20051;-75
2022/09/24 10:07:58;;;;;;;2.70;1.05;;;25.30;65.90;;;;;;5034607;28;20065;-72
2022/09/24 10:10:27;;;;;;;1.83;1.00;;;25.50;66.00;;;;;;5017939;28;20069;-73
2022/09/24 10:13:12;;;;;;;2.05;1.02;;;25.60;65.90;;;;;;5033969;28;20049;-74
2022/09/24 10:15:52;;;;;;;1.75;1.20;;;25.80;65.60;;;;;;5018632;28;20150;-73
2022/09/24 10:18:29;;;;;;;1.58;1.30;;;25.80;64.80;;;;;;5035135;28;20114;-72
2022/09/24 10:21:00;;;;;;;2.05;1.20;;;25.60;64.60;;;;;;5033793;28;20905;-72
2022/09/24 10:23:41;;;;;;;3.15;1.27;;;25.60;64.90;;;;;;5034185;28;20495;-75
2022/09/24 10:26:09;;;;;;;5.30;1.45;;;25.40;65.90;;;;;;5034389;28;20139;-72
2022/09/24 10:31:39;;;;;;;2.55;1.40;;;25.40;64.90;;;;;;5052307;28;20040;-72
2022/09/24 10:34:21;;;;;;;6.75;1.60;;;25.40;64.50;;;;;;5052265;28;20052;-72
2022/09/24 10:36:51;;;;;;;3.58;2.20;;;25.30;66.30;;;;;;5033159;28;20087;-73
2022/09/24 10:39:21;;;;;;;2.45;1.23;;;25.40;66.50;;;;;;5033875;28;20045;-72
2022/09/24 10:41:55;;;;;;;3.65;1.20;;;25.10;63.90;;;;;;5033848;28;20041;-74
2022/09/24 10:44:34;;;;;;;1.98;1.20;;;25.10;63.50;;;;;;5017330;28;20076;-72
2022/09/24 10:47:10;;;;;;;2.30;1.38;;;24.90;63.40;;;;;;5034002;28;20410;-72
2022/09/24 10:49:56;;;;;;;3.03;1.48;;;24.80;64.90;;;;;;5036804;28;20071;-72
2022/09/24 10:52:39;;;;;;;;;;;24.80;66.80;;;;;;5054260;28;20121;-72
2022/09/24 10:55:31;;;;;;;4.95;1.65;;;24.90;63.40;;;;;;5053213;28;19926;-72
2022/09/24 10:58:24;;;;;;;4.45;2.63;;;25.10;66.80;;;;;;5037659;28;20052;-72
2022/09/24 11:01:19;;;;;;;3.47;1.85;;;25.30;64.00;;;;;;5053558;28;20047;-72
2022/09/24 11:04:16;;;;;;;2.58;1.50;;;25.40;63.30;;;;;;5053865;28;20048;-72
2022/09/24 11:07:08;;;;;;;3.55;1.20;;;25.40;62.00;;;;;;5053346;28;20079;-72
2022/09/24 11:09:53;;;;;;;2.10;1.27;;;25.50;62.20;;;;;;5052765;28;20076;-72
2022/09/24 11:12:40;;;;;;;2.97;1.73;;;25.60;62.00;;;;;;5052993;28;20544;-73
2022/09/24 11:15:29;;;;;;;3.88;1.50;;;25.60;65.50;;;;;;5071123;28;20083;-72
2022/09/24 11:18:09;;;;;;;2.53;1.25;;;25.60;62.30;;;;;;5053358;28;20140;-72
2022/09/24 11:20:38;;;;;;;2.15;1.23;;;25.30;61.30;;;;;;5035619;28;20059;-71
2022/09/24 11:23:16;;;;;;;3.75;1.45;;;25.20;61.10;;;;;;5036493;28;20068;-72
2022/09/24 11:26:00;;;;;;;2.88;1.50;;;25.20;61.70;;;;;;5052654;28;20170;-74
2022/09/24 11:28:47;;;;;;;2.35;1.20;;;25.20;61.50;;;;;;5052715;28;20435;-72
2022/09/24 11:31:27;;;;;;;1.83;1.00;;;25.10;61.30;;;;;;5035128;28;20139;-74
2022/09/24 11:34:06;;;;;;;3.42;1.42;;;25.20;61.30;;;;;;5052227;28;20157;-72
2022/09/24 11:37:02;;;;;;;2.45;1.50;;;25.30;60.90;;;;;;5051266;28;20409;-74
2022/09/24 11:40:02;;;;;;;2.67;1.38;;;25.10;59.90;;;;;;5052195;28;20045;-80
2022/09/24 11:42:55;;;;;;;2.63;1.38;;;25.10;59.10;;;;;;5041949;28;20503;-73
2022/09/24 11:45:46;;;;;;;3.50;1.30;;;25.20;59.10;;;;;;5032130;28;20056;-72
2022/09/24 11:48:20;;;;;;;1.70;1.20;;;25.30;59.60;;;;;;5031587;28;20045;-72
2022/09/24 11:50:58;;;;;;;2.08;1.42;;;25.40;59.60;;;;;;5031471;28;20787;-72
2022/09/24 11:53:48;;;;;;;3.72;1.40;;;25.40;60.10;;;;;;5031868;28;20045;-72
2022/09/24 11:56:31;;;;;;;8.00;1.65;;;25.40;59.50;;;;;;5031578;28;20144;-72
2022/09/24 11:59:26;;;;;;;2.20;1.42;;;25.40;60.20;;;;;;5016001;28;20090;-72
2022/09/24 12:02:03;;;;;;;2.78;1.27;;;25.30;60.00;;;;;;5015510;28;20130;-74
2022/09/24 12:04:47;;;;;;;1.98;1.20;;;24.80;59.90;;;;;;5031772;28;20045;-72
2022/09/24 12:07:36;;;;;;;3.50;2.08;;;24.70;60.70;;;;;;5032004;28;20131;-73
2022/09/24 12:10:17;;;;;;;2.00;1.20;;;24.50;61.50;;;;;;4998490;28;20513;-72
2022/09/24 12:12:49;;;;;;;2.60;1.42;;;24.50;61.20;;;;;;5056220;28;20056;-73
2022/09/24 12:15:28;;;;;;;2.67;1.40;;;24.40;61.70;;;;;;5048797;28;20135;-72
2022/09/24 12:18:44;;;;;;;5.05;1.70;;;24.50;61.60;;;;;;5049060;28;20120;-73
2022/09/24 12:21:20;;;;;;;2.83;1.50;;;24.50;61.50;;;;;;5032868;28;20406;-73
2022/09/24 12:23:50;;;;;;;2.60;1.48;;;24.60;61.20;;;;;;5065149;28;20125;-73
2022/09/24 12:26:21;;;;;;;3.30;1.63;;;24.50;61.70;;;;;;5050878;28;20044;-80
2022/09/24 12:35:27;;;;;;;6.78;1.70;;;24.30;72.40;;;;;;5033650;28;20079;-72
2022/09/24 12:38:03;;;;;;;3.70;1.60;;;24.00;75.60;;;;;;5027798;28;20462;-72
2022/09/24 12:41:11;;;;;;;2.78;1.58;;;23.80;76.50;;;;;;5047812;28;20505;-72
2022/09/24 12:43:48;;;;;;;1.73;1.30;;;23.60;76.90;;;;;;5006360;28;20769;-73
2022/09/24 12:46:20;;;;;;;5.80;2.10;;;23.40;77.60;;;;;;5052068;28;20082;-74
2022/09/24 12:48:50;;;;;;;2.22;1.63;;;23.30;77.60;;;;;;5055230;28;20094;-72
2022/09/24 12:51:22;;;;;;;3.10;1.73;;;23.10;76.60;;;;;;5035720;28;20077;-72
2022/09/24 12:54:20;;;;;;;2.83;1.70;;;23.00;78.40;;;;;;5034240;28;20075;-72
2022/09/24 12:56:48;;;;;;;3.15;1.35;;;22.90;79.20;;;;;;5052777;28;20143;-73
2022/09/24 12:59:25;;;;;;;3.50;1.70;;;22.80;79.70;;;;;;5069664;28;20856;-72
2022/09/24 13:01:54;;;;;;;2.33;1.88;;;22.90;80.00;;;;;;5049177;28;20106;-72
2022/09/24 13:04:26;;;;;;;2.60;1.70;;;22.80;80.00;;;;;;5069894;28;20076;-72
2022/09/24 13:06:54;;;;;;;2.00;1.42;;;22.80;79.60;;;;;;5068306;28;20522;-72
2022/09/24 13:09:39;;;;;;;5.32;2.10;;;22.90;80.00;;;;;;5035503;28;20049;-72
2022/09/24 13:12:15;;;;;;;2.92;1.73;;;22.90;80.90;;;;;;5023240;28;20049;-73
2022/09/24 13:14:48;;;;;;;2.75;1.95;;;22.80;81.10;;;;;;5014041;28;20049;-72
2022/09/24 13:17:17;;;;;;;3.45;1.80;;;22.70;81.60;;;;;;5040639;28;20044;-73
2022/09/24 13:19:46;;;;;;;4.50;2.20;;;22.60;81.60;;;;;;5049478;28;20064;-72
2022/09/24 13:22:29;;;;;;;2.47;1.55;;;22.50;82.10;;;;;;5069651;28;20120;-72
2022/09/24 13:25:06;;;;;;;3.83;1.70;;;22.50;82.60;;;;;;5027064;28;20093;-71
2022/09/24 13:27:41;;;;;;;2.25;1.50;;;22.50;82.70;;;;;;5049687;28;20494;-72
2022/09/24 13:30:18;;;;;;;3.15;1.90;;;22.50;82.70;;;;;;5031473;28;20467;-73
2022/09/24 13:32:52;;;;;;;2.92;1.75;;;22.50;83.10;;;;;;5028322;28;20136;-72
2022/09/24 13:35:28;;;;;;;3.58;2.40;;;22.50;82.30;;;;;;5044927;28;20681;-73
2022/09/24 13:38:05;;;;;;;3.08;1.95;;;22.40;82.60;;;;;;5012146;28;20087;-76
2022/09/24 13:40:38;;;;;;;2.95;1.90;;;22.40;83.20;;;;;;5025238;28;20211;-74
2022/09/24 13:43:18;;;;;;;4.10;2.50;;;22.40;83.20;;;;;;5050220;28;20091;-74